Time;durP1;ratioP1;P1;durP2;ratioP2;P2;SDS_P1;SDS_P2;PMS_P1;PMS_P2;Temp;Humidity;BMP_temperature;BMP_pressure;BME280_temperature;BME280_humidity;BME280_pressure;Samples;Min_cycle;Max_cycle;Signal;HPM_P1;HPM_P2
2022/05/23 00:01:39;;;;;;;;;;;16.20;71.90;;;;;;4969783;28;19914;-77
2022/05/23 00:04:05;;;;;;;;;;;16.10;72.50;;;;;;4959505;28;20476;-76
2022/05/23 00:06:30;;;;;;;;;;;16.10;72.00;;;;;;4967863;28;20780;-77
2022/05/23 00:08:56;;;;;;;;;;;16.20;72.10;;;;;;4970825;28;19961;-76
2022/05/23 00:11:21;;;;;;;;;;;16.20;72.50;;;;;;4970485;28;19969;-77
2022/05/23 00:13:47;;;;;;;;;;;16.20;72.80;;;;;;4970280;28;19953;-77
2022/05/23 00:16:17;;;;;;;;;;;16.10;73.20;;;;;;4966694;28;19915;-77
2022/05/23 00:18:43;;;;;;;;;;;16.10;72.70;;;;;;4972429;28;19921;-77
2022/05/23 00:21:08;;;;;;;;;;;16.10;72.90;;;;;;4967535;28;19949;-76
2022/05/23 00:23:34;;;;;;;;;;;16.10;72.90;;;;;;4984171;28;19922;-76
2022/05/23 00:25:59;;;;;;;;;;;16.10;73.40;;;;;;4967941;28;19960;-76
2022/05/23 00:28:24;;;;;;;;;;;16.10;73.70;;;;;;4970815;28;19914;-76
2022/05/23 00:30:50;;;;;;;;;;;16.10;73.50;;;;;;4962931;28;20379;-76
2022/05/23 00:35:59;;;;;;;;;;;16.00;74.60;;;;;;4969649;28;19925;-76
2022/05/23 00:38:25;;;;;;;;;;;15.90;74.10;;;;;;4970862;28;19918;-76
2022/05/23 00:43:13;;;;;;;;;;;15.90;74.50;;;;;;4967538;28;19918;-76
2022/05/23 00:43:59;;;;;;;;;;;16.00;74.30;;;;;;4972444;28;19922;-76
2022/05/23 00:46:24;;;;;;;;;;;15.90;74.50;;;;;;4971768;28;20004;-77
2022/05/23 00:48:50;;;;;;;;;;;16.00;74.50;;;;;;4987382;28;20120;-78
2022/05/23 00:51:16;;;;;;;;;;;15.90;74.10;;;;;;4991956;28;19921;-77
2022/05/23 00:53:48;;;;;;;;;;;15.70;74.80;;;;;;4988075;28;20371;-78
2022/05/23 00:56:14;;;;;;;;;;;15.60;75.00;;;;;;4964686;28;20643;-78
2022/05/23 00:58:42;;;;;;;;;;;15.60;75.20;;;;;;4951226;28;19918;-78
2022/05/23 01:01:09;;;;;;;;;;;15.70;75.00;;;;;;4970445;28;19914;-77
2022/05/23 01:03:35;;;;;;;;;;;15.60;75.20;;;;;;4967867;28;20021;-77
2022/05/23 01:06:00;;;;;;;;;;;15.60;75.60;;;;;;4971592;28;20077;-78
2022/05/23 01:08:26;;;;;;;;;;;15.60;75.40;;;;;;4965157;28;19919;-78
2022/05/23 01:10:52;;;;;;;;;;;15.60;75.90;;;;;;4968191;28;19945;-78
2022/05/23 01:13:18;;;;;;;;;;;15.60;76.30;;;;;;4988367;28;19917;-78
2022/05/23 01:15:48;;;;;;;;;;;15.60;76.70;;;;;;4973837;28;20235;-78
2022/05/23 01:18:14;;;;;;;;;;;15.70;76.70;;;;;;4974821;28;19918;-77
2022/05/23 01:20:39;;;;;;;;;;;15.60;76.60;;;;;;4968855;28;19928;-78
2022/05/23 01:23:04;;;;;;;;;;;15.60;76.80;;;;;;4971736;28;20009;-78
2022/05/23 01:25:34;;;;;;;;;;;15.60;77.00;;;;;;4977938;28;19924;-78
2022/05/23 01:28:00;;;;;;;;;;;15.60;77.30;;;;;;4973094;28;19953;-78
2022/05/23 01:30:25;;;;;;;;;;;15.60;76.60;;;;;;4969750;28;19949;-78
2022/05/23 01:32:51;;;;;;;;;;;15.50;76.40;;;;;;4969066;28;19945;-78
2022/05/23 01:35:16;;;;;;;;;;;15.50;76.50;;;;;;4968431;28;19922;-79
2022/05/23 01:37:42;;;;;;;;;;;15.50;76.70;;;;;;4967955;28;20281;-78
2022/05/23 01:40:09;;;;;;;;;;;15.40;77.10;;;;;;4963341;28;19910;-79
2022/05/23 01:42:34;;;;;;;;;;;15.40;77.10;;;;;;4958990;28;19958;-78
2022/05/23 01:45:00;;;;;;;;;;;15.50;77.50;;;;;;4971335;28;20405;-77
2022/05/23 01:47:26;;;;;;;;;;;15.60;77.30;;;;;;4961419;28;19922;-78
2022/05/23 01:49:51;;;;;;;;;;;15.50;77.10;;;;;;4967000;28;19914;-79
2022/05/23 01:52:16;;;;;;;;;;;15.50;77.30;;;;;;4964755;28;19993;-78
2022/05/23 01:54:42;;;;;;;;;;;15.40;77.40;;;;;;4968196;28;19914;-78
2022/05/23 01:57:08;;;;;;;;;;;15.30;77.20;;;;;;4967060;28;20371;-78
2022/05/23 02:02:18;;;;;;;;;;;15.60;77.10;;;;;;4961281;28;19925;-79
2022/05/23 02:04:45;;;;;;;;;;;15.70;76.30;;;;;;4964715;28;19914;-78
2022/05/23 02:07:11;;;;;;;;;;;15.70;76.00;;;;;;4964597;28;19918;-79
2022/05/23 02:09:36;;;;;;;;;;;15.60;76.20;;;;;;4969432;28;19961;-79
2022/05/23 02:12:02;;;;;;;;;;;15.50;76.40;;;;;;4969222;28;19918;-78
2022/05/23 02:14:27;;;;;;;;;;;15.50;76.60;;;;;;4968616;28;20001;-78
2022/05/23 02:16:53;;;;;;;;;;;15.60;76.90;;;;;;4967374;28;19918;-78
2022/05/23 02:19:18;;;;;;;;;;;15.70;76.90;;;;;;4965783;28;19949;-78
2022/05/23 02:21:44;;;;;;;;;;;15.60;76.40;;;;;;4965821;28;19914;-78
2022/05/23 02:24:10;;;;;;;;;;;15.60;77.20;;;;;;4955804;28;19922;-79
2022/05/23 02:26:35;;;;;;;;;;;15.60;77.10;;;;;;4973325;28;20068;-78
2022/05/23 02:29:02;;;;;;;;;;;15.70;77.20;;;;;;4964351;28;19918;-78
2022/05/23 02:31:27;;;;;;;;;;;15.70;77.40;;;;;;4966351;28;19910;-78
2022/05/23 02:33:53;;;;;;;;;;;15.70;77.70;;;;;;4958019;28;19921;-78
2022/05/23 02:36:18;;;;;;;;;;;15.70;77.50;;;;;;4968841;28;19918;-78
2022/05/23 02:38:44;;;;;;;;;;;15.60;77.60;;;;;;4967855;28;20274;-78
2022/05/23 02:41:10;;;;;;;;;;;15.60;77.60;;;;;;4972471;28;19977;-78
2022/05/23 02:43:35;;;;;;;;;;;15.60;77.90;;;;;;4970152;28;20319;-77
2022/05/23 02:46:01;;;;;;;;;;;15.60;77.80;;;;;;4967904;28;20426;-78
2022/05/23 02:48:26;;;;;;;;;;;15.60;77.90;;;;;;4968082;28;19918;-78
2022/05/23 02:50:52;;;;;;;;;;;15.70;78.10;;;;;;4968438;28;19924;-77
2022/05/23 02:53:17;;;;;;;;;;;15.70;78.10;;;;;;4965322;28;19929;-78
2022/05/23 02:55:42;;;;;;;;;;;15.70;78.00;;;;;;4953211;28;19910;-78
2022/05/23 02:58:08;;;;;;;;;;;15.60;78.10;;;;;;4968084;28;20318;-78
2022/05/23 03:00:35;;;;;;;;;;;15.60;78.40;;;;;;4966715;28;20717;-78
2022/05/23 03:03:03;;;;;;;;;;;15.60;78.50;;;;;;4973598;28;19920;-78
2022/05/23 03:05:30;;;;;;;;;;;15.90;76.50;;;;;;4974327;28;20386;-77
2022/05/23 03:07:55;;;;;;;;;;;15.90;76.10;;;;;;4967189;28;19933;-77
2022/05/23 03:10:21;;;;;;;;;;;15.80;76.60;;;;;;4971091;28;19918;-78
2022/05/23 03:12:46;;;;;;;;;;;15.70;77.40;;;;;;4955018;28;20493;-77
2022/05/23 03:15:12;;;;;;;;;;;15.80;77.20;;;;;;4971793;28;20247;-77
2022/05/23 03:17:38;;;;;;;;;;;15.80;77.20;;;;;;4966471;28;20321;-77
2022/05/23 03:20:04;;;;;;;;;;;15.80;76.80;;;;;;4967432;28;19918;-77
2022/05/23 03:28:02;;;;;;;;;;;15.90;76.10;;;;;;4965962;28;19921;-77
2022/05/23 03:30:28;;;;;;;;;;;15.90;76.20;;;;;;4969280;28;19918;-77
2022/05/23 03:32:53;;;;;;;;;;;15.90;76.50;;;;;;4958337;28;19914;-77
2022/05/23 03:35:19;;;;;;;;;;;15.90;76.20;;;;;;4960358;28;19921;-77
2022/05/23 03:37:44;;;;;;;;;;;15.90;76.30;;;;;;4962406;28;19918;-77
2022/05/23 03:40:10;;;;;;;;;;;15.90;76.90;;;;;;4968719;28;19914;-76
2022/05/23 03:42:36;;;;;;;;;;;16.00;76.90;;;;;;4970938;28;20020;-77
2022/05/23 03:45:02;;;;;;;;;;;15.90;77.20;;;;;;4973202;28;20014;-77
2022/05/23 03:47:27;;;;;;;;;;;15.90;76.90;;;;;;4968772;28;19944;-76
2022/05/23 03:49:53;;;;;;;;;;;15.80;76.60;;;;;;4971589;28;20450;-76
2022/05/23 03:52:20;;;;;;;;;;;15.80;76.40;;;;;;4983298;28;19921;-77
2022/05/23 03:54:46;;;;;;;;;;;15.80;76.90;;;;;;4991846;28;19918;-77
2022/05/23 03:57:11;;;;;;;;;;;15.80;76.90;;;;;;4989591;28;19997;-77
2022/05/23 03:59:37;;;;;;;;;;;16.00;75.70;;;;;;4972384;28;19914;-77
2022/05/23 04:02:02;;;;;;;;;;;15.90;76.30;;;;;;4965216;28;19921;-77
2022/05/23 04:04:29;;;;;;;;;;;16.00;76.90;;;;;;4971890;28;20524;-78
2022/05/23 04:07:01;;;;;;;;;;;15.90;76.30;;;;;;4966115;28;19914;-77
2022/05/23 04:09:28;;;;;;;;;;;15.80;76.40;;;;;;4963341;28;19922;-77
2022/05/23 04:11:53;;;;;;;;;;;15.80;77.00;;;;;;4969539;28;19989;-77
2022/05/23 04:14:19;;;;;;;;;;;15.90;76.40;;;;;;4966595;28;19914;-76
2022/05/23 04:16:47;;;;;;;;;;;16.00;75.90;;;;;;4964691;28;19993;-77
2022/05/23 04:19:13;;;;;;;;;;;16.00;76.20;;;;;;4964348;28;19925;-77
2022/05/23 04:21:40;;;;;;;;;;;16.00;75.50;;;;;;4960299;28;19914;-77
2022/05/23 04:24:05;;;;;;;;;;;16.00;75.80;;;;;;4964219;28;19921;-77
2022/05/23 04:26:31;;;;;;;;;;;16.10;75.80;;;;;;4963349;28;20009;-77
2022/05/23 04:28:56;;;;;;;;;;;16.00;76.70;;;;;;4967411;28;19914;-77
2022/05/23 04:31:22;;;;;;;;;;;16.10;76.70;;;;;;4965394;28;19927;-77
2022/05/23 04:36:31;;;;;;;;;;;16.00;77.40;;;;;;4962220;28;19925;-77
2022/05/23 04:38:57;;;;;;;;;;;16.00;77.00;;;;;;4961866;28;19919;-77
2022/05/23 04:41:23;;;;;;;;;;;16.00;77.10;;;;;;4959835;28;19994;-77
2022/05/23 04:43:49;;;;;;;;;;;16.00;76.70;;;;;;4949993;28;20009;-77
2022/05/23 04:46:14;;;;;;;;;;;16.00;75.80;;;;;;4968671;28;20005;-77
2022/05/23 04:51:25;;;;;;;;;;;16.00;75.90;;;;;;4964583;28;19968;-77
2022/05/23 04:53:53;;;;;;;;;;;15.90;76.20;;;;;;4968469;28;19942;-77
2022/05/23 04:56:19;;;;;;;;;;;16.00;76.70;;;;;;4965595;28;19977;-77
2022/05/23 04:58:45;;;;;;;;;;;16.00;76.10;;;;;;4966452;28;19981;-77
2022/05/23 05:01:10;;;;;;;;;;;16.10;76.10;;;;;;4970129;28;20326;-77
2022/05/23 05:03:36;;;;;;;;;;;16.00;76.20;;;;;;4962980;28;19914;-77
2022/05/23 05:06:01;;;;;;;;;;;16.00;76.40;;;;;;4968740;28;19921;-77
2022/05/23 05:08:28;;;;;;;;;;;16.00;76.60;;;;;;4964758;28;19922;-77
2022/05/23 05:10:54;;;;;;;;;;;16.20;76.20;;;;;;4964387;28;19918;-77
2022/05/23 05:13:19;;;;;;;;;;;16.40;74.90;;;;;;4966983;28;19925;-77
2022/05/23 05:15:45;;;;;;;;;;;16.50;74.80;;;;;;4961567;28;19973;-77
2022/05/23 05:18:11;;;;;;;;;;;16.60;74.20;;;;;;4962782;28;20350;-77
2022/05/23 05:20:36;;;;;;;;;;;16.70;73.20;;;;;;4963528;28;20006;-77
2022/05/23 05:23:02;;;;;;;;;;;16.80;73.00;;;;;;4972011;28;20331;-78
2022/05/23 05:25:27;;;;;;;;;;;16.60;73.90;;;;;;4967679;28;19914;-77
2022/05/23 05:27:52;;;;;;;;;;;16.60;74.10;;;;;;4959652;28;20294;-77
2022/05/23 05:30:20;;;;;;;;;;;16.60;74.60;;;;;;4964536;28;19941;-77
2022/05/23 05:32:51;;;;;;;;;;;16.50;74.40;;;;;;4946517;28;19914;-77
2022/05/23 05:35:24;;;;;;;;;;;16.60;74.40;;;;;;4966681;28;19915;-77
2022/05/23 05:38:10;;;;;;;;;;;16.60;74.60;;;;;;4966137;28;19918;-78
2022/05/23 05:40:36;;;;;;;;;;;16.60;74.80;;;;;;4960352;28;19933;-79
2022/05/23 05:43:06;;;;;;;;;;;16.60;74.80;;;;;;4969097;28;19924;-77
2022/05/23 05:45:40;;;;;;;;;;;16.60;75.20;;;;;;4963421;28;19956;-77
2022/05/23 05:48:05;;;;;;;;;;;16.60;75.40;;;;;;4968119;28;20371;-77
2022/05/23 05:50:33;;;;;;;;;;;16.60;75.10;;;;;;4969566;28;19922;-77
2022/05/23 05:53:01;;;;;;;;;;;16.60;74.90;;;;;;4964243;28;20069;-77
2022/05/23 05:55:27;;;;;;;;;;;16.60;75.00;;;;;;4967259;28;19918;-78
2022/05/23 05:57:53;;;;;;;;;;;16.70;75.40;;;;;;4966376;28;19964;-77
2022/05/23 06:00:19;;;;;;;;;;;16.70;75.40;;;;;;4962538;28;20483;-76
2022/05/23 06:02:45;;;;;;;;;;;16.80;75.30;;;;;;4967468;28;19921;-77
2022/05/23 06:05:10;;;;;;;;;;;16.90;75.60;;;;;;4949143;28;19922;-77
2022/05/23 06:13:04;;;;;;;;;;;17.30;73.20;;;;;;4968670;28;20010;-80
2022/05/23 06:15:30;;;;;;;;;;;17.40;72.50;;;;;;4964085;28;20358;-78
2022/05/23 06:17:55;;;;;;;;;;;17.50;72.80;;;;;;4963234;28;20016;-81
2022/05/23 06:20:23;;;;;;;;;;;17.40;72.80;;;;;;4964939;28;19922;-78
2022/05/23 06:22:50;;;;;;;;;;;17.50;72.30;;;;;;4965856;28;19914;-78
2022/05/23 06:25:16;;;;;;;;;;;17.50;72.10;;;;;;4963754;28;19914;-78
2022/05/23 06:27:41;;;;;;;;;;;17.50;72.60;;;;;;4962314;28;19922;-78
2022/05/23 06:30:09;;;;;;;;;;;17.60;72.20;;;;;;4962867;28;19914;-77
2022/05/23 06:32:35;;;;;;;;;;;17.60;72.70;;;;;;4959178;28;19930;-78
2022/05/23 06:35:01;;;;;;;;;;;17.60;72.90;;;;;;4976021;28;19918;-78
2022/05/23 06:37:26;;;;;;;;;;;17.60;72.20;;;;;;4968310;28;19918;-78
2022/05/23 06:39:52;;;;;;;;;;;17.80;72.80;;;;;;4961809;28;20000;-78
2022/05/23 06:42:17;;;;;;;;;;;18.00;72.20;;;;;;4960919;28;20866;-78
2022/05/23 06:44:43;;;;;;;;;;;17.90;72.10;;;;;;4968215;28;20302;-78
2022/05/23 06:47:08;;;;;;;;;;;18.10;72.50;;;;;;4961630;28;19925;-78
2022/05/23 06:49:34;;;;;;;;;;;18.20;71.60;;;;;;4965537;28;19922;-78
2022/05/23 06:51:59;;;;;;;;;;;18.20;71.20;;;;;;4962487;28;20316;-78
2022/05/23 06:54:25;;;;;;;;;;;18.20;71.70;;;;;;4985278;28;19918;-80
2022/05/23 06:56:50;;;;;;;;;;;18.20;71.70;;;;;;4988692;28;19918;-77
2022/05/23 06:59:17;;;;;;;;;;;18.20;70.90;;;;;;4991146;28;19918;-78
2022/05/23 07:01:43;;;;;;;;;;;18.10;71.80;;;;;;4974356;28;20477;-77
2022/05/23 07:04:08;;;;;;;;;;;18.20;70.90;;;;;;4964583;28;19914;-77
2022/05/23 07:12:22;;;;;;;;;;;18.60;70.80;;;;;;4973678;28;19960;-79
2022/05/23 07:14:48;;;;;;;;;;;18.70;68.00;;;;;;4971528;28;20267;-79
2022/05/23 07:17:15;;;;;;;;;;;18.80;69.80;;;;;;4974013;28;19921;-79
2022/05/23 07:19:41;;;;;;;;;;;18.90;69.00;;;;;;4966220;28;20013;-78
2022/05/23 07:22:07;;;;;;;;;;;19.00;67.00;;;;;;4959558;28;19921;-79
2022/05/23 07:24:33;;;;;;;;;;;19.10;66.10;;;;;;4975365;28;19914;-79
2022/05/23 07:26:58;;;;;;;;;;;19.10;64.20;;;;;;4973417;28;19921;-78
2022/05/23 07:29:24;;;;;;;;;;;19.20;66.10;;;;;;4966611;28;19926;-79
2022/05/23 07:31:50;;;;;;;;;;;19.30;65.80;;;;;;4971640;28;19921;-78
2022/05/23 07:34:16;;;;;;;;;;;19.50;66.40;;;;;;4964969;28;20607;-78
2022/05/23 07:36:41;;;;;;;;;;;19.60;64.40;;;;;;4969680;28;19987;-79
2022/05/23 07:39:11;;;;;;;;;;;19.60;65.00;;;;;;4970471;28;19969;-79
2022/05/23 07:41:39;;;;;;;;;;;19.60;63.80;;;;;;4963696;28;19964;-78
2022/05/23 07:44:05;;;;;;;;;;;19.70;64.00;;;;;;4972268;28;20012;-78
2022/05/23 07:46:30;;;;;;;;;;;19.90;64.30;;;;;;4971186;28;19914;-79
2022/05/23 07:48:56;;;;;;;;;;;20.00;64.40;;;;;;4967554;28;19922;-79
2022/05/23 07:51:24;;;;;;;;;;;20.20;63.70;;;;;;4969942;28;19926;-79
2022/05/23 08:02:04;;;;;;;;;;;20.80;61.90;;;;;;4966309;28;20310;-79
2022/05/23 08:04:30;;;;;;;;;;;20.80;62.20;;;;;;4954390;28;20407;-79
2022/05/23 08:06:55;;;;;;;;;;;20.90;62.80;;;;;;4967051;28;20406;-79
2022/05/23 08:09:21;;;;;;;;;;;20.90;61.80;;;;;;4970938;28;19918;-78
2022/05/23 08:11:49;;;;;;;;;;;20.90;62.40;;;;;;4970772;28;20013;-79
2022/05/23 08:14:14;;;;;;;;;;;20.90;62.00;;;;;;4970130;28;19914;-78
2022/05/23 08:16:40;;;;;;;;;;;20.80;60.80;;;;;;4962900;28;19968;-78
2022/05/23 08:19:06;;;;;;;;;;;20.80;61.30;;;;;;4961494;28;20350;-80
2022/05/23 08:21:32;;;;;;;;;;;20.90;61.50;;;;;;4979155;28;19918;-80
2022/05/23 08:23:58;;;;;;;;;;;21.10;59.50;;;;;;4962886;28;19914;-80
2022/05/23 08:26:25;;;;;;;;;;;21.10;59.00;;;;;;4974838;28;20460;-79
2022/05/23 08:28:51;;;;;;;;;;;21.20;59.90;;;;;;4960507;28;20512;-80
2022/05/23 08:31:16;;;;;;;;;;;21.10;59.60;;;;;;4964389;28;19914;-80
2022/05/23 08:33:42;;;;;;;;;;;21.00;60.40;;;;;;4970291;28;20294;-79
2022/05/23 08:36:10;;;;;;;;;;;21.00;59.70;;;;;;5005944;23;20404;-86
2022/05/23 08:38:36;;;;;;;;;;;21.10;59.80;;;;;;5014730;28;19929;-86
2022/05/23 08:41:11;;;;;;;;;;;21.10;60.30;;;;;;5030217;28;19967;-84
2022/05/23 08:43:41;;;;;;;;;;;21.20;58.50;;;;;;5012683;28;20004;-83
2022/05/23 08:46:08;;;;;;;;;;;21.40;59.20;;;;;;5036383;28;19996;-84
2022/05/23 08:48:42;;;;;;;;;;;21.60;56.90;;;;;;5023782;28;19921;-85
2022/05/23 08:51:16;;;;;;;;;;;21.70;56.50;;;;;;5029846;28;20361;-83
2022/05/23 08:53:45;;;;;;;;;;;21.90;58.10;;;;;;5032616;28;19913;-83
2022/05/23 08:56:18;;;;;;;;;;;22.10;56.00;;;;;;5030685;28;19983;-83
2022/05/23 08:58:49;;;;;;;;;;;22.20;56.70;;;;;;5043046;28;19911;-81
2022/05/23 09:01:19;;;;;;;;;;;22.10;56.40;;;;;;5034427;28;19927;-81
2022/05/23 09:03:55;;;;;;;;;;;22.10;55.00;;;;;;5024648;28;20539;-85
2022/05/23 09:06:28;;;;;;;;;;;22.00;55.20;;;;;;5040192;28;20204;-86
2022/05/23 09:08:55;;;;;;;;;;;22.00;54.50;;;;;;5016500;28;19951;-84
2022/05/23 09:11:25;;;;;;;;;;;21.80;55.50;;;;;;5019042;28;19913;-85
2022/05/23 09:13:52;;;;;;;;;;;21.80;55.70;;;;;;5022611;28;19924;-85
2022/05/23 09:16:17;;;;;;;;;;;21.80;56.30;;;;;;5013829;28;19914;-86
2022/05/23 09:18:53;;;;;;;;;;;21.80;55.60;;;;;;5016026;28;20443;-82
2022/05/23 09:21:19;;;;;;;;;;;21.80;55.60;;;;;;5035515;28;19975;-83
2022/05/23 09:23:47;;;;;;;;;;;22.10;56.00;;;;;;5010926;28;20371;-84
2022/05/23 09:26:42;;;;;;;;;;;22.40;55.00;;;;;;5030703;28;20403;-83
2022/05/23 09:29:08;;;;;;;;;;;22.50;54.50;;;;;;5005990;28;20562;-85
2022/05/23 09:31:43;;;;;;;;;;;22.10;56.30;;;;;;5013402;28;19917;-82
2022/05/23 09:34:27;;;;;;;;;;;22.10;55.00;;;;;;5005438;28;19924;-84
2022/05/23 09:36:52;;;;;;;;;;;22.00;56.00;;;;;;5044007;28;19960;-84
2022/05/23 09:39:21;;;;;;;;;;;22.10;56.30;;;;;;5013209;28;19935;-84
2022/05/23 09:50:27;;;;;;;;;;;22.90;55.60;;;;;;5015681;28;20051;-85
2022/05/23 09:52:56;;;;;;;;;;;23.00;55.50;;;;;;5019135;28;19921;-81
2022/05/23 09:55:28;;;;;;;;;;;23.00;53.90;;;;;;5028427;28;20325;-83
2022/05/23 09:57:55;;;;;;;;;;;23.10;53.80;;;;;;5034775;28;19927;-83
2022/05/23 10:00:23;;;;;;;;;;;23.10;53.20;;;;;;5030982;28;19972;-83
2022/05/23 10:02:59;;;;;;;;;;;23.00;53.50;;;;;;5015460;28;20011;-83
2022/05/23 10:05:25;;;;;;;;;;;22.90;53.30;;;;;;5030906;28;19921;-82
2022/05/23 10:07:53;;;;;;;;;;;23.00;53.10;;;;;;5028069;28;20004;-84
2022/05/23 10:10:21;;;;;;;;;;;23.00;53.80;;;;;;5009915;28;20005;-84
2022/05/23 10:12:48;;;;;;;;;;;23.10;54.50;;;;;;5024040;28;19914;-82
2022/05/23 10:15:13;;;;;;;;;;;23.00;55.30;;;;;;5004432;28;19925;-82
2022/05/23 10:17:40;;;;;;;;;;;23.00;54.90;;;;;;5007850;28;20306;-81
2022/05/23 10:20:38;;;;;;;;;;;23.10;54.20;;;;;;5028860;28;19999;-79
2022/05/23 10:23:17;;;;;;;;;;;23.20;53.30;;;;;;4961342;28;19948;-81
2022/05/23 10:25:52;;;;;;;;;;;23.30;55.60;;;;;;5005792;28;20023;-81
2022/05/23 10:28:26;;;;;;;;;;;23.50;54.30;;;;;;5027712;28;19936;-81
2022/05/23 10:30:57;;;;;;;;;;;23.50;54.90;;;;;;5033567;28;19933;-83
2022/05/23 10:33:24;;;;;;;;;;;23.80;52.10;;;;;;5037785;28;19936;-83
2022/05/23 10:35:59;;;;;;;;;;;24.20;52.60;;;;;;5034827;28;19921;-83
2022/05/23 10:44:17;;;;;;;;;;;24.20;51.80;;;;;;5029461;28;19920;-83
2022/05/23 10:46:44;;;;;;;;;;;24.20;52.50;;;;;;5019691;28;19918;-80
2022/05/23 10:49:20;;;;;;;;;;;24.20;51.20;;;;;;5030289;28;19913;-80
2022/05/23 10:52:04;;;;;;;;;;;24.20;53.10;;;;;;5030766;28;19913;-82
2022/05/23 10:54:49;;;;;;;;;;;24.20;53.10;;;;;;5014625;28;20384;-82
2022/05/23 10:57:14;;;;;;;;;;;24.30;53.20;;;;;;5030961;28;19917;-82
2022/05/23 10:59:43;;;;;;;;;;;24.50;51.60;;;;;;5009027;28;19949;-83
2022/05/23 11:02:12;;;;;;;;;;;24.60;51.40;;;;;;5041089;28;19912;-81
2022/05/23 11:04:50;;;;;;;;;;;24.70;52.00;;;;;;5040104;28;19923;-80
2022/05/23 11:07:24;;;;;;;;;;;24.70;51.70;;;;;;5044696;28;19937;-81
2022/05/23 11:10:09;;;;;;;;;;;24.60;52.60;;;;;;5037499;28;19918;-84
2022/05/23 11:12:46;;;;;;;;;;;24.50;52.00;;;;;;5027179;28;19921;-81
2022/05/23 11:15:31;;;;;;;;;;;24.50;52.30;;;;;;5021947;28;19989;-82
2022/05/23 11:17:59;;;;;;;;;;;24.70;51.10;;;;;;5020465;28;20081;-82
2022/05/23 11:20:38;;;;;;;;;;;24.80;51.70;;;;;;5030564;28;19921;-84
2022/05/23 11:23:10;;;;;;;;;;;24.80;53.40;;;;;;5039328;28;19939;-85
2022/05/23 11:25:38;;;;;;;;;;;24.90;51.10;;;;;;5036373;28;19917;-81
2022/05/23 11:33:47;;;;;;;;;;;24.80;50.50;;;;;;5036484;28;19974;-84
2022/05/23 11:36:15;;;;;;;;;;;24.80;50.40;;;;;;5027574;28;19936;-81
2022/05/23 11:38:45;;;;;;;;;;;24.90;51.40;;;;;;5011425;28;20323;-84
2022/05/23 11:41:33;;;;;;;;;;;25.00;51.00;;;;;;5014467;28;19952;-86
2022/05/23 11:44:01;;;;;;;;;;;24.90;52.00;;;;;;5010868;28;19979;-83
2022/05/23 11:46:27;;;;;;;;;;;25.00;51.50;;;;;;5017263;28;19916;-84
2022/05/23 11:48:58;;;;;;;;;;;25.10;50.80;;;;;;5025344;28;20328;-83
2022/05/23 11:51:23;;;;;;;;;;;25.00;51.20;;;;;;5011609;28;20363;-83
2022/05/23 11:54:00;;;;;;;;;;;25.00;50.80;;;;;;5032482;28;19913;-83
2022/05/23 11:56:34;;;;;;;;;;;25.00;50.10;;;;;;5028032;28;19940;-84
2022/05/23 11:58:59;;;;;;;;;;;24.90;51.10;;;;;;5017457;28;19976;-84
2022/05/23 12:01:27;;;;;;;;;;;25.00;51.50;;;;;;5023968;28;20048;-82
2022/05/23 12:03:56;;;;;;;;;;;25.00;51.00;;;;;;5029620;28;19917;-82
2022/05/23 12:06:24;;;;;;;;;;;25.00;51.70;;;;;;5026719;28;19917;-84
2022/05/23 12:09:01;;;;;;;;;;;24.90;52.70;;;;;;5030992;28;19921;-82
2022/05/23 12:11:29;;;;;;;;;;;25.10;51.80;;;;;;5029219;28;19945;-84
2022/05/23 12:13:59;;;;;;;;;;;25.20;51.70;;;;;;5005843;28;19925;-83
2022/05/23 12:16:29;;;;;;;;;;;25.30;52.00;;;;;;5016808;28;20286;-82
2022/05/23 12:19:26;;;;;;;;;;;25.30;52.90;;;;;;5014957;28;20403;-83
2022/05/23 12:21:52;;;;;;;;;;;25.30;52.20;;;;;;4990912;28;20035;-82
2022/05/23 12:24:21;;;;;;;;;;;25.30;51.20;;;;;;5038841;28;19947;-82
2022/05/23 12:26:55;;;;;;;;;;;25.40;51.80;;;;;;5002355;28;19917;-82
2022/05/23 12:29:21;;;;;;;;;;;25.50;52.20;;;;;;5028405;28;19920;-82
2022/05/23 12:32:05;;;;;;;;;;;25.60;52.20;;;;;;5047990;28;19901;-83
2022/05/23 12:34:31;;;;;;;;;;;25.50;51.50;;;;;;5023561;28;19919;-84
2022/05/23 12:36:57;;;;;;;;;;;25.40;52.50;;;;;;5017208;28;19928;-84
2022/05/23 12:39:25;;;;;;;;;;;25.50;52.50;;;;;;5037682;28;19980;-85
2022/05/23 12:41:57;;;;;;;;;;;25.80;51.60;;;;;;5018938;28;19917;-84
2022/05/23 12:44:32;;;;;;;;;;;25.60;51.70;;;;;;5038986;28;19913;-82
2022/05/23 12:47:09;;;;;;;;;;;25.40;53.20;;;;;;5021196;28;20477;-82
2022/05/23 12:49:41;;;;;;;;;;;25.50;51.30;;;;;;5023459;28;19918;-86
2022/05/23 12:52:21;;;;;;;;;;;25.50;52.90;;;;;;5014184;28;19917;-84
2022/05/23 12:54:50;;;;;;;;;;;25.60;53.60;;;;;;5031867;28;19932;-83
2022/05/23 12:57:26;;;;;;;;;;;25.80;51.50;;;;;;4987903;28;20203;-80
2022/05/23 13:00:04;;;;;;;;;;;26.10;51.20;;;;;;4989792;28;20111;-81
2022/05/23 13:02:33;;;;;;;;;;;26.00;51.20;;;;;;4987420;28;20198;-82
2022/05/23 13:05:04;;;;;;;;;;;26.00;50.00;;;;;;4971900;28;19916;-83
2022/05/23 13:07:42;;;;;;;;;;;26.10;49.70;;;;;;5005140;28;20056;-82
2022/05/23 13:10:20;;;;;;;;;;;25.90;50.80;;;;;;4999757;28;19978;-84
2022/05/23 13:12:59;;;;;;;;;;;25.80;51.60;;;;;;5003399;28;20511;-83
2022/05/23 13:15:29;;;;;;;;;;;25.80;50.60;;;;;;4963300;28;20202;-82
2022/05/23 13:23:31;;;;;;;;;;;25.60;51.70;;;;;;4938525;28;20298;-86
2022/05/23 13:26:08;;;;;;;;;;;25.60;51.70;;;;;;4945662;28;20092;-88
2022/05/23 13:28:41;;;;;;;;;;;25.50;52.90;;;;;;4983436;28;19916;-85
2022/05/23 13:31:21;;;;;;;;;;;25.40;53.50;;;;;;5004410;28;19924;-88
2022/05/23 13:33:48;;;;;;;;;;;25.40;53.10;;;;;;4974376;28;20353;-89
2022/05/23 13:36:15;;;;;;;;;;;25.50;53.30;;;;;;4976647;28;19916;-89
2022/05/23 13:38:58;;;;;;;;;;;25.20;53.90;;;;;;4965604;28;19929;-90
2022/05/23 13:41:25;;;;;;;;;;;25.10;55.30;;;;;;4976063;28;20530;-85
2022/05/23 13:43:52;;;;;;;;;;;24.60;59.60;;;;;;4970169;28;20425;-86
2022/05/23 13:46:28;;;;;;;;;;;24.40;60.20;;;;;;4987037;28;20493;-84
2022/05/23 13:49:01;;;;;;;;;;;24.20;58.70;;;;;;4992054;28;20284;-86
2022/05/23 13:51:40;;;;;;;;;;;24.10;60.30;;;;;;4970075;28;19945;-80
2022/05/23 13:54:12;;;;;;;;;;;24.00;58.80;;;;;;4974605;28;19953;-78
2022/05/23 13:56:41;;;;;;;;;;;24.10;59.90;;;;;;4975710;28;19929;-80
2022/05/23 13:59:09;;;;;;;;;;;24.30;59.10;;;;;;4976155;28;20020;-80
2022/05/23 14:01:38;;;;;;;;;;;24.30;59.90;;;;;;4950770;28;19915;-82
2022/05/23 14:04:09;;;;;;;;;;;24.20;59.70;;;;;;5031429;28;19940;-79
2022/05/23 14:06:38;;;;;;;;;;;24.30;60.20;;;;;;5037162;28;19965;-80
2022/05/23 14:09:05;;;;;;;;;;;24.00;60.90;;;;;;5045726;28;19905;-82
2022/05/23 14:11:33;;;;;;;;;;;23.90;61.70;;;;;;5002632;28;19925;-82
2022/05/23 14:14:21;;;;;;;;;;;23.90;61.40;;;;;;4987636;28;19909;-85
2022/05/23 14:16:56;;;;;;;;;;;23.90;60.50;;;;;;4959388;28;19959;-82
2022/05/23 14:19:29;;;;;;;;;;;23.90;68.90;;;;;;4988587;28;19928;-81
2022/05/23 14:22:21;;;;;;;;;;;23.50;70.70;;;;;;4987808;28;19913;-82
2022/05/23 14:24:49;;;;;;;;;;;23.20;71.80;;;;;;4968507;28;19913;-80
2022/05/23 14:27:25;;;;;;;;;;;23.00;73.10;;;;;;4947719;28;20252;-81
2022/05/23 14:30:10;;;;;;;;;;;22.80;73.40;;;;;;4988214;28;19931;-80
2022/05/23 14:32:36;;;;;;;;;;;22.80;73.20;;;;;;4966011;28;20174;-83
2022/05/23 14:35:19;;;;;;;;;;;22.70;73.50;;;;;;4955895;28;20414;-81
2022/05/23 14:37:49;;;;;;;;;;;22.60;74.10;;;;;;5021509;23;19926;-81
2022/05/23 14:40:15;;;;;;;;;;;22.50;76.00;;;;;;4998507;28;19929;-80
2022/05/23 14:42:44;;;;;;;;;;;22.40;77.20;;;;;;4985106;28;20009;-81
2022/05/23 14:45:13;;;;;;;;;;;22.30;79.30;;;;;;4981416;28;19993;-81
2022/05/23 14:47:52;;;;;;;;;;;22.00;79.20;;;;;;4980617;28;19914;-82
2022/05/23 14:50:19;;;;;;;;;;;21.90;79.70;;;;;;4978008;28;19915;-81
2022/05/23 14:52:46;;;;;;;;;;;21.80;78.50;;;;;;4972815;28;20009;-81
2022/05/23 14:55:19;;;;;;;;;;;21.80;79.10;;;;;;4973479;28;19977;-82
2022/05/23 15:00:54;;;;;;;;;;;21.70;80.70;;;;;;4969184;28;19921;-81
2022/05/23 15:03:21;;;;;;;;;;;21.70;81.00;;;;;;4973996;28;20365;-81
2022/05/23 15:05:48;;;;;;;;;;;21.70;81.30;;;;;;4977076;28;19929;-81
2022/05/23 15:08:14;;;;;;;;;;;21.70;81.60;;;;;;4993694;28;20272;-81
2022/05/23 15:10:40;;;;;;;;;;;21.60;81.50;;;;;;4978115;28;19914;-81
2022/05/23 15:13:06;;;;;;;;;;;21.60;82.60;;;;;;4976847;28;19922;-81
2022/05/23 15:15:32;;;;;;;;;;;21.60;80.70;;;;;;4972691;28;19914;-81
2022/05/23 15:17:57;;;;;;;;;;;22.00;80.80;;;;;;4988343;28;20013;-81
2022/05/23 15:20:24;;;;;;;;;;;22.00;81.00;;;;;;4991426;28;19914;-81
2022/05/23 15:22:53;;;;;;;;;;;22.00;80.70;;;;;;4998143;28;19910;-81
2022/05/23 15:25:19;;;;;;;;;;;21.80;80.10;;;;;;4992161;28;19934;-81
2022/05/23 15:27:47;;;;;;;;;;;21.80;80.70;;;;;;4977683;28;19910;-81
2022/05/23 15:30:14;;;;;;;;;;;21.90;81.00;;;;;;4987772;28;19914;-80